sensor_id;sensor_type;location;lat;lon;timestamp;P1;durP1;ratioP1;P2;durP2;ratioP2
20754;SDS011;26385;48.470;7.938;2022-10-31T00:00:52;11.35;;;3.75;;
20754;SDS011;26385;48.470;7.938;2022-10-31T00:03:17;7.75;;;3.70;;
20754;SDS011;26385;48.470;7.938;2022-10-31T00:05:43;10.90;;;4.15;;
20754;SDS011;26385;48.470;7.938;2022-10-31T00:08:10;11.80;;;3.95;;
20754;SDS011;26385;48.470;7.938;2022-10-31T00:10:38;7.15;;;3.67;;
20754;SDS011;26385;48.470;7.938;2022-10-31T00:13:05;7.97;;;4.10;;
20754;SDS011;26385;48.470;7.938;2022-10-31T00:15:32;5.90;;;3.17;;
20754;SDS011;26385;48.470;7.938;2022-10-31T00:17:58;9.38;;;3.55;;
20754;SDS011;26385;48.470;7.938;2022-10-31T00:20:23;8.55;;;3.70;;
20754;SDS011;26385;48.470;7.938;2022-10-31T00:22:49;10.90;;;3.58;;
20754;SDS011;26385;48.470;7.938;2022-10-31T00:25:14;10.32;;;3.60;;
20754;SDS011;26385;48.470;7.938;2022-10-31T00:27:39;6.70;;;3.80;;
20754;SDS011;26385;48.470;7.938;2022-10-31T00:30:05;7.57;;;4.03;;
20754;SDS011;26385;48.470;7.938;2022-10-31T00:32:30;9.55;;;4.18;;
20754;SDS011;26385;48.470;7.938;2022-10-31T00:34:55;6.68;;;3.35;;
20754;SDS011;26385;48.470;7.938;2022-10-31T00:37:21;9.40;;;3.97;;
20754;SDS011;26385;48.470;7.938;2022-10-31T00:39:46;8.40;;;3.90;;
20754;SDS011;26385;48.470;7.938;2022-10-31T00:42:13;10.50;;;4.10;;
20754;SDS011;26385;48.470;7.938;2022-10-31T00:44:39;8.40;;;3.58;;
20754;SDS011;26385;48.470;7.938;2022-10-31T00:47:04;8.75;;;3.80;;
20754;SDS011;26385;48.470;7.938;2022-10-31T00:49:29;6.80;;;3.70;;
20754;SDS011;26385;48.470;7.938;2022-10-31T00:51:55;12.73;;;4.50;;
20754;SDS011;26385;48.470;7.938;2022-10-31T00:54:20;9.65;;;3.30;;
20754;SDS011;26385;48.470;7.938;2022-10-31T00:56:45;8.50;;;3.38;;
20754;SDS011;26385;48.470;7.938;2022-10-31T00:59:10;10.68;;;3.55;;
20754;SDS011;26385;48.470;7.938;2022-10-31T01:01:35;9.10;;;3.72;;
20754;SDS011;26385;48.470;7.938;2022-10-31T01:04:01;7.75;;;4.15;;
20754;SDS011;26385;48.470;7.938;2022-10-31T01:06:26;7.50;;;3.53;;
20754;SDS011;26385;48.470;7.938;2022-10-31T01:08:51;9.82;;;4.03;;
20754;SDS011;26385;48.470;7.938;2022-10-31T01:11:18;12.20;;;3.90;;
20754;SDS011;26385;48.470;7.938;2022-10-31T01:13:46;9.52;;;3.78;;
20754;SDS011;26385;48.470;7.938;2022-10-31T01:16:16;8.40;;;3.60;;
20754;SDS011;26385;48.470;7.938;2022-10-31T01:18:43;9.30;;;3.40;;
20754;SDS011;26385;48.470;7.938;2022-10-31T01:21:09;4.97;;;3.22;;
20754;SDS011;26385;48.470;7.938;2022-10-31T01:23:39;10.45;;;3.72;;
20754;SDS011;26385;48.470;7.938;2022-10-31T01:26:12;8.25;;;3.60;;
20754;SDS011;26385;48.470;7.938;2022-10-31T01:28:47;7.68;;;3.25;;
20754;SDS011;26385;48.470;7.938;2022-10-31T01:31:14;12.25;;;4.15;;
20754;SDS011;26385;48.470;7.938;2022-10-31T01:33:41;8.02;;;4.10;;
20754;SDS011;26385;48.470;7.938;2022-10-31T01:38:40;7.28;;;3.50;;
20754;SDS011;26385;48.470;7.938;2022-10-31T01:41:06;10.45;;;3.28;;
20754;SDS011;26385;48.470;7.938;2022-10-31T01:46:33;7.57;;;3.80;;
20754;SDS011;26385;48.470;7.938;2022-10-31T01:49:04;7.63;;;3.47;;
20754;SDS011;26385;48.470;7.938;2022-10-31T01:51:34;10.07;;;3.85;;
20754;SDS011;26385;48.470;7.938;2022-10-31T01:54:07;9.77;;;3.30;;
20754;SDS011;26385;48.470;7.938;2022-10-31T01:56:38;8.38;;;3.70;;
20754;SDS011;26385;48.470;7.938;2022-10-31T01:59:08;7.30;;;3.78;;
20754;SDS011;26385;48.470;7.938;2022-10-31T02:01:36;10.05;;;3.40;;
20754;SDS011;26385;48.470;7.938;2022-10-31T02:04:02;9.25;;;3.28;;
20754;SDS011;26385;48.470;7.938;2022-10-31T02:06:33;8.27;;;3.70;;
20754;SDS011;26385;48.470;7.938;2022-10-31T02:09:03;9.57;;;3.85;;
20754;SDS011;26385;48.470;7.938;2022-10-31T02:11:30;7.85;;;3.40;;
20754;SDS011;26385;48.470;7.938;2022-10-31T02:13:56;9.20;;;3.70;;
20754;SDS011;26385;48.470;7.938;2022-10-31T02:16:24;7.60;;;3.63;;
20754;SDS011;26385;48.470;7.938;2022-10-31T02:18:49;8.35;;;3.40;;
20754;SDS011;26385;48.470;7.938;2022-10-31T02:21:16;9.43;;;3.60;;
20754;SDS011;26385;48.470;7.938;2022-10-31T02:32:18;9.77;;;4.57;;
20754;SDS011;26385;48.470;7.938;2022-10-31T02:37:38;10.15;;;3.85;;
20754;SDS011;26385;48.470;7.938;2022-10-31T02:45:39;6.43;;;4.00;;
20754;SDS011;26385;48.470;7.938;2022-10-31T02:48:14;7.85;;;3.75;;
20754;SDS011;26385;48.470;7.938;2022-10-31T02:50:46;10.15;;;3.55;;
20754;SDS011;26385;48.470;7.938;2022-10-31T02:53:17;6.65;;;3.65;;
20754;SDS011;26385;48.470;7.938;2022-10-31T02:55:50;8.27;;;3.30;;
20754;SDS011;26385;48.470;7.938;2022-10-31T02:58:22;8.35;;;3.65;;
20754;SDS011;26385;48.470;7.938;2022-10-31T03:01:02;9.55;;;3.90;;
20754;SDS011;26385;48.470;7.938;2022-10-31T03:03:53;11.75;;;4.10;;
20754;SDS011;26385;48.470;7.938;2022-10-31T03:12:28;9.00;;;3.57;;
20754;SDS011;26385;48.470;7.938;2022-10-31T03:14:33;7.57;;;3.70;;
20754;SDS011;26385;48.470;7.938;2022-10-31T03:17:07;8.93;;;3.45;;
20754;SDS011;26385;48.470;7.938;2022-10-31T03:19:39;7.10;;;3.40;;
20754;SDS011;26385;48.470;7.938;2022-10-31T03:24:52;10.10;;;3.63;;
20754;SDS011;26385;48.470;7.938;2022-10-31T03:27:22;9.90;;;4.00;;
20754;SDS011;26385;48.470;7.938;2022-10-31T03:29:50;8.60;;;3.60;;
20754;SDS011;26385;48.470;7.938;2022-10-31T03:32:27;10.15;;;4.10;;
20754;SDS011;26385;48.470;7.938;2022-10-31T03:34:58;7.72;;;3.50;;
20754;SDS011;26385;48.470;7.938;2022-10-31T03:37:27;8.23;;;3.95;;
20754;SDS011;26385;48.470;7.938;2022-10-31T03:39:55;8.32;;;3.45;;
20754;SDS011;26385;48.470;7.938;2022-10-31T03:42:24;9.10;;;3.72;;
20754;SDS011;26385;48.470;7.938;2022-10-31T03:45:03;11.93;;;3.75;;
20754;SDS011;26385;48.470;7.938;2022-10-31T03:47:36;9.85;;;3.90;;
20754;SDS011;26385;48.470;7.938;2022-10-31T03:50:03;12.05;;;3.90;;
20754;SDS011;26385;48.470;7.938;2022-10-31T03:52:33;9.15;;;3.83;;
20754;SDS011;26385;48.470;7.938;2022-10-31T03:58:15;8.55;;;3.85;;
20754;SDS011;26385;48.470;7.938;2022-10-31T04:00:49;8.35;;;3.72;;
20754;SDS011;26385;48.470;7.938;2022-10-31T04:03:19;9.57;;;4.00;;
20754;SDS011;26385;48.470;7.938;2022-10-31T04:05:49;10.10;;;4.15;;
20754;SDS011;26385;48.470;7.938;2022-10-31T04:08:19;6.70;;;3.40;;
20754;SDS011;26385;48.470;7.938;2022-10-31T04:10:48;5.95;;;3.60;;
20754;SDS011;26385;48.470;7.938;2022-10-31T04:13:17;10.80;;;4.00;;
20754;SDS011;26385;48.470;7.938;2022-10-31T04:15:48;11.48;;;3.95;;
20754;SDS011;26385;48.470;7.938;2022-10-31T04:18:16;8.27;;;3.72;;
20754;SDS011;26385;48.470;7.938;2022-10-31T04:20:42;11.07;;;3.60;;
20754;SDS011;26385;48.470;7.938;2022-10-31T04:23:25;7.72;;;3.67;;
20754;SDS011;26385;48.470;7.938;2022-10-31T04:25:51;11.65;;;3.75;;
20754;SDS011;26385;48.470;7.938;2022-10-31T04:28:16;7.75;;;3.42;;
20754;SDS011;26385;48.470;7.938;2022-10-31T04:30:42;8.13;;;3.65;;
20754;SDS011;26385;48.470;7.938;2022-10-31T04:33:07;10.07;;;3.92;;
20754;SDS011;26385;48.470;7.938;2022-10-31T04:35:33;10.45;;;3.88;;
20754;SDS011;26385;48.470;7.938;2022-10-31T04:37:58;9.32;;;3.63;;
20754;SDS011;26385;48.470;7.938;2022-10-31T04:40:23;9.18;;;3.67;;
20754;SDS011;26385;48.470;7.938;2022-10-31T04:42:49;6.65;;;3.35;;
20754;SDS011;26385;48.470;7.938;2022-10-31T04:45:14;10.50;;;4.00;;
20754;SDS011;26385;48.470;7.938;2022-10-31T04:47:39;9.45;;;4.35;;
20754;SDS011;26385;48.470;7.938;2022-10-31T04:50:04;8.77;;;3.80;;
20754;SDS011;26385;48.470;7.938;2022-10-31T04:52:30;6.07;;;3.47;;
20754;SDS011;26385;48.470;7.938;2022-10-31T04:54:55;10.35;;;4.43;;
20754;SDS011;26385;48.470;7.938;2022-10-31T04:57:21;9.88;;;3.92;;
20754;SDS011;26385;48.470;7.938;2022-10-31T04:59:46;8.95;;;3.75;;
20754;SDS011;26385;48.470;7.938;2022-10-31T05:02:11;9.27;;;3.80;;
20754;SDS011;26385;48.470;7.938;2022-10-31T05:04:37;13.10;;;3.83;;
20754;SDS011;26385;48.470;7.938;2022-10-31T05:07:02;9.85;;;4.07;;
20754;SDS011;26385;48.470;7.938;2022-10-31T05:09:27;9.15;;;3.55;;
20754;SDS011;26385;48.470;7.938;2022-10-31T05:11:52;7.72;;;3.88;;
20754;SDS011;26385;48.470;7.938;2022-10-31T05:14:17;10.95;;;4.10;;
20754;SDS011;26385;48.470;7.938;2022-10-31T05:16:43;10.07;;;3.47;;
20754;SDS011;26385;48.470;7.938;2022-10-31T05:19:08;7.65;;;3.40;;
20754;SDS011;26385;48.470;7.938;2022-10-31T05:21:33;8.55;;;3.60;;
20754;SDS011;26385;48.470;7.938;2022-10-31T05:23:59;6.63;;;3.83;;
20754;SDS011;26385;48.470;7.938;2022-10-31T05:26:24;7.68;;;3.63;;
20754;SDS011;26385;48.470;7.938;2022-10-31T05:28:49;7.20;;;3.17;;
20754;SDS011;26385;48.470;7.938;2022-10-31T05:31:15;7.50;;;3.30;;
20754;SDS011;26385;48.470;7.938;2022-10-31T05:33:40;7.10;;;3.92;;
20754;SDS011;26385;48.470;7.938;2022-10-31T05:36:05;8.75;;;3.72;;
20754;SDS011;26385;48.470;7.938;2022-10-31T05:38:31;7.47;;;4.05;;
20754;SDS011;26385;48.470;7.938;2022-10-31T05:40:56;10.43;;;3.90;;
20754;SDS011;26385;48.470;7.938;2022-10-31T05:43:28;52.35;;;10.93;;
20754;SDS011;26385;48.470;7.938;2022-10-31T05:45:54;31.73;;;7.15;;
20754;SDS011;26385;48.470;7.938;2022-10-31T05:48:19;18.70;;;7.25;;
20754;SDS011;26385;48.470;7.938;2022-10-31T05:50:46;11.73;;;5.32;;
20754;SDS011;26385;48.470;7.938;2022-10-31T05:53:13;7.85;;;3.70;;
20754;SDS011;26385;48.470;7.938;2022-10-31T05:55:38;8.13;;;3.70;;
20754;SDS011;26385;48.470;7.938;2022-10-31T05:58:05;11.05;;;4.47;;
20754;SDS011;26385;48.470;7.938;2022-10-31T06:00:31;10.40;;;3.63;;
20754;SDS011;26385;48.470;7.938;2022-10-31T06:02:57;8.55;;;4.13;;
20754;SDS011;26385;48.470;7.938;2022-10-31T06:05:27;9.07;;;3.80;;
20754;SDS011;26385;48.470;7.938;2022-10-31T06:07:53;9.75;;;3.65;;
20754;SDS011;26385;48.470;7.938;2022-10-31T06:10:18;6.88;;;3.85;;
20754;SDS011;26385;48.470;7.938;2022-10-31T06:12:45;10.82;;;4.30;;
20754;SDS011;26385;48.470;7.938;2022-10-31T06:15:11;10.45;;;5.10;;
20754;SDS011;26385;48.470;7.938;2022-10-31T06:17:36;12.65;;;6.18;;
20754;SDS011;26385;48.470;7.938;2022-10-31T06:20:02;8.48;;;4.20;;
20754;SDS011;26385;48.470;7.938;2022-10-31T06:22:29;11.50;;;4.28;;
20754;SDS011;26385;48.470;7.938;2022-10-31T06:24:54;10.13;;;5.57;;
20754;SDS011;26385;48.470;7.938;2022-10-31T06:27:19;12.18;;;5.90;;
20754;SDS011;26385;48.470;7.938;2022-10-31T06:29:44;16.42;;;6.68;;
20754;SDS011;26385;48.470;7.938;2022-10-31T06:32:12;12.90;;;6.00;;
20754;SDS011;26385;48.470;7.938;2022-10-31T06:34:38;12.82;;;5.88;;
20754;SDS011;26385;48.470;7.938;2022-10-31T06:37:05;14.82;;;6.13;;
20754;SDS011;26385;48.470;7.938;2022-10-31T06:39:34;9.43;;;5.88;;
20754;SDS011;26385;48.470;7.938;2022-10-31T06:42:00;13.23;;;6.07;;
20754;SDS011;26385;48.470;7.938;2022-10-31T06:44:25;14.05;;;6.40;;
20754;SDS011;26385;48.470;7.938;2022-10-31T06:46:51;14.00;;;6.35;;
20754;SDS011;26385;48.470;7.938;2022-10-31T06:49:16;11.00;;;5.45;;
20754;SDS011;26385;48.470;7.938;2022-10-31T06:51:41;13.80;;;5.80;;
20754;SDS011;26385;48.470;7.938;2022-10-31T06:54:07;11.48;;;5.65;;
20754;SDS011;26385;48.470;7.938;2022-10-31T06:56:32;13.18;;;6.15;;
20754;SDS011;26385;48.470;7.938;2022-10-31T06:58:57;10.23;;;5.05;;
20754;SDS011;26385;48.470;7.938;2022-10-31T07:01:23;8.23;;;5.38;;
20754;SDS011;26385;48.470;7.938;2022-10-31T07:03:48;10.02;;;5.07;;
20754;SDS011;26385;48.470;7.938;2022-10-31T07:06:13;8.45;;;4.63;;
20754;SDS011;26385;48.470;7.938;2022-10-31T07:08:38;7.78;;;4.28;;
20754;SDS011;26385;48.470;7.938;2022-10-31T07:11:04;9.40;;;4.40;;
20754;SDS011;26385;48.470;7.938;2022-10-31T07:13:29;9.48;;;5.25;;
20754;SDS011;26385;48.470;7.938;2022-10-31T07:15:59;9.98;;;4.85;;
20754;SDS011;26385;48.470;7.938;2022-10-31T07:18:28;9.60;;;4.40;;
20754;SDS011;26385;48.470;7.938;2022-10-31T07:20:54;10.02;;;4.30;;
20754;SDS011;26385;48.470;7.938;2022-10-31T07:23:19;7.25;;;4.30;;
20754;SDS011;26385;48.470;7.938;2022-10-31T07:25:45;8.73;;;4.53;;
20754;SDS011;26385;48.470;7.938;2022-10-31T07:28:10;10.07;;;4.30;;
20754;SDS011;26385;48.470;7.938;2022-10-31T07:30:36;8.68;;;4.45;;
20754;SDS011;26385;48.470;7.938;2022-10-31T07:33:02;11.65;;;4.50;;
20754;SDS011;26385;48.470;7.938;2022-10-31T07:35:28;12.32;;;5.43;;
20754;SDS011;26385;48.470;7.938;2022-10-31T07:37:54;12.23;;;6.57;;
20754;SDS011;26385;48.470;7.938;2022-10-31T07:40:20;17.67;;;7.82;;
20754;SDS011;26385;48.470;7.938;2022-10-31T07:42:46;18.30;;;9.70;;
20754;SDS011;26385;48.470;7.938;2022-10-31T07:45:15;9.65;;;4.90;;
20754;SDS011;26385;48.470;7.938;2022-10-31T07:47:43;10.43;;;3.65;;
20754;SDS011;26385;48.470;7.938;2022-10-31T07:50:27;11.20;;;4.97;;
20754;SDS011;26385;48.470;7.938;2022-10-31T07:55:28;9.82;;;4.18;;
20754;SDS011;26385;48.470;7.938;2022-10-31T07:58:05;9.30;;;4.03;;
20754;SDS011;26385;48.470;7.938;2022-10-31T08:00:33;10.48;;;4.40;;
20754;SDS011;26385;48.470;7.938;2022-10-31T08:05:24;9.40;;;4.15;;
20754;SDS011;26385;48.470;7.938;2022-10-31T08:07:49;6.55;;;4.05;;
20754;SDS011;26385;48.470;7.938;2022-10-31T08:10:15;8.25;;;3.97;;
20754;SDS011;26385;48.470;7.938;2022-10-31T08:12:40;12.52;;;6.10;;
20754;SDS011;26385;48.470;7.938;2022-10-31T08:15:05;9.20;;;4.90;;
20754;SDS011;26385;48.470;7.938;2022-10-31T08:17:34;10.32;;;4.95;;
20754;SDS011;26385;48.470;7.938;2022-10-31T08:20:00;13.88;;;5.95;;
20754;SDS011;26385;48.470;7.938;2022-10-31T08:22:26;14.45;;;5.28;;
20754;SDS011;26385;48.470;7.938;2022-10-31T08:24:51;12.60;;;4.82;;
20754;SDS011;26385;48.470;7.938;2022-10-31T08:27:16;10.52;;;4.05;;
20754;SDS011;26385;48.470;7.938;2022-10-31T08:29:42;8.35;;;4.10;;
20754;SDS011;26385;48.470;7.938;2022-10-31T08:32:07;11.93;;;4.28;;
20754;SDS011;26385;48.470;7.938;2022-10-31T08:34:32;8.38;;;4.50;;
20754;SDS011;26385;48.470;7.938;2022-10-31T08:36:57;10.15;;;4.20;;
20754;SDS011;26385;48.470;7.938;2022-10-31T08:39:23;11.18;;;4.13;;
20754;SDS011;26385;48.470;7.938;2022-10-31T08:41:48;7.65;;;4.43;;
20754;SDS011;26385;48.470;7.938;2022-10-31T08:44:13;10.55;;;4.43;;
20754;SDS011;26385;48.470;7.938;2022-10-31T08:46:40;12.30;;;4.78;;
20754;SDS011;26385;48.470;7.938;2022-10-31T08:49:06;10.77;;;4.22;;
20754;SDS011;26385;48.470;7.938;2022-10-31T08:51:31;8.48;;;4.30;;
20754;SDS011;26385;48.470;7.938;2022-10-31T08:53:56;8.13;;;4.65;;
20754;SDS011;26385;48.470;7.938;2022-10-31T08:56:21;10.07;;;4.65;;
20754;SDS011;26385;48.470;7.938;2022-10-31T08:58:47;11.50;;;4.45;;
20754;SDS011;26385;48.470;7.938;2022-10-31T09:01:12;7.95;;;4.38;;
20754;SDS011;26385;48.470;7.938;2022-10-31T09:03:38;10.07;;;4.35;;
20754;SDS011;26385;48.470;7.938;2022-10-31T09:06:03;9.70;;;4.25;;
20754;SDS011;26385;48.470;7.938;2022-10-31T09:08:30;10.95;;;4.63;;
20754;SDS011;26385;48.470;7.938;2022-10-31T09:10:57;10.45;;;4.00;;
20754;SDS011;26385;48.470;7.938;2022-10-31T09:13:23;9.40;;;4.13;;
20754;SDS011;26385;48.470;7.938;2022-10-31T09:15:49;11.18;;;5.30;;
20754;SDS011;26385;48.470;7.938;2022-10-31T09:18:16;8.50;;;4.57;;
20754;SDS011;26385;48.470;7.938;2022-10-31T09:20:43;10.77;;;4.60;;
20754;SDS011;26385;48.470;7.938;2022-10-31T09:23:10;14.30;;;6.47;;
20754;SDS011;26385;48.470;7.938;2022-10-31T09:25:43;14.35;;;5.72;;
20754;SDS011;26385;48.470;7.938;2022-10-31T09:28:10;9.82;;;4.55;;
20754;SDS011;26385;48.470;7.938;2022-10-31T09:30:37;11.30;;;4.93;;
20754;SDS011;26385;48.470;7.938;2022-10-31T09:33:07;8.80;;;4.20;;
20754;SDS011;26385;48.470;7.938;2022-10-31T09:35:35;12.10;;;3.97;;
20754;SDS011;26385;48.470;7.938;2022-10-31T09:38:01;8.32;;;4.68;;
20754;SDS011;26385;48.470;7.938;2022-10-31T09:48:51;9.13;;;4.70;;
20754;SDS011;26385;48.470;7.938;2022-10-31T09:51:23;12.35;;;4.90;;
20754;SDS011;26385;48.470;7.938;2022-10-31T09:56:26;10.02;;;4.80;;
20754;SDS011;26385;48.470;7.938;2022-10-31T09:58:54;10.23;;;4.68;;
20754;SDS011;26385;48.470;7.938;2022-10-31T10:04:25;10.88;;;4.57;;
20754;SDS011;26385;48.470;7.938;2022-10-31T10:07:05;10.75;;;4.38;;
20754;SDS011;26385;48.470;7.938;2022-10-31T10:09:37;10.18;;;4.43;;
20754;SDS011;26385;48.470;7.938;2022-10-31T10:17:22;10.05;;;4.60;;
20754;SDS011;26385;48.470;7.938;2022-10-31T10:23:11;7.22;;;4.70;;
20754;SDS011;26385;48.470;7.938;2022-10-31T10:25:40;10.30;;;5.28;;
20754;SDS011;26385;48.470;7.938;2022-10-31T10:30:50;12.68;;;5.70;;
20754;SDS011;26385;48.470;7.938;2022-10-31T10:33:32;8.38;;;5.00;;
20754;SDS011;26385;48.470;7.938;2022-10-31T10:36:05;11.00;;;5.22;;
20754;SDS011;26385;48.470;7.938;2022-10-31T10:41:17;11.45;;;4.50;;
20754;SDS011;26385;48.470;7.938;2022-10-31T10:43:48;10.45;;;4.88;;
20754;SDS011;26385;48.470;7.938;2022-10-31T10:49:14;7.82;;;4.63;;
20754;SDS011;26385;48.470;7.938;2022-10-31T10:51:46;11.10;;;5.30;;
20754;SDS011;26385;48.470;7.938;2022-10-31T10:59:46;8.50;;;4.82;;
20754;SDS011;26385;48.470;7.938;2022-10-31T11:02:16;10.20;;;5.07;;
20754;SDS011;26385;48.470;7.938;2022-10-31T11:04:43;11.00;;;4.80;;
20754;SDS011;26385;48.470;7.938;2022-10-31T11:07:12;16.15;;;5.70;;
20754;SDS011;26385;48.470;7.938;2022-10-31T11:09:37;11.90;;;5.03;;
20754;SDS011;26385;48.470;7.938;2022-10-31T11:12:10;9.43;;;4.68;;
20754;SDS011;26385;48.470;7.938;2022-10-31T11:14:51;8.80;;;4.75;;
20754;SDS011;26385;48.470;7.938;2022-10-31T11:17:37;11.38;;;5.28;;
20754;SDS011;26385;48.470;7.938;2022-10-31T11:22:30;9.93;;;5.27;;
20754;SDS011;26385;48.470;7.938;2022-10-31T11:24:55;11.23;;;5.32;;
20754;SDS011;26385;48.470;7.938;2022-10-31T11:27:21;12.10;;;5.40;;
20754;SDS011;26385;48.470;7.938;2022-10-31T11:29:48;9.40;;;4.95;;
20754;SDS011;26385;48.470;7.938;2022-10-31T11:32:24;13.02;;;5.10;;
20754;SDS011;26385;48.470;7.938;2022-10-31T11:34:53;11.95;;;4.82;;
20754;SDS011;26385;48.470;7.938;2022-10-31T11:37:25;9.95;;;5.20;;
20754;SDS011;26385;48.470;7.938;2022-10-31T11:39:53;9.93;;;4.88;;
20754;SDS011;26385;48.470;7.938;2022-10-31T11:42:20;9.93;;;4.90;;
20754;SDS011;26385;48.470;7.938;2022-10-31T11:44:47;8.55;;;4.88;;
20754;SDS011;26385;48.470;7.938;2022-10-31T11:47:15;11.52;;;4.63;;
20754;SDS011;26385;48.470;7.938;2022-10-31T11:49:43;9.77;;;5.35;;
20754;SDS011;26385;48.470;7.938;2022-10-31T11:52:28;11.07;;;5.88;;
20754;SDS011;26385;48.470;7.938;2022-10-31T11:57:47;11.30;;;5.43;;
20754;SDS011;26385;48.470;7.938;2022-10-31T12:00:21;11.65;;;5.57;;
20754;SDS011;26385;48.470;7.938;2022-10-31T12:03:57;11.60;;;5.57;;
20754;SDS011;26385;48.470;7.938;2022-10-31T12:06:08;10.10;;;5.10;;
20754;SDS011;26385;48.470;7.938;2022-10-31T12:08:38;10.63;;;5.28;;
20754;SDS011;26385;48.470;7.938;2022-10-31T12:14:27;13.27;;;5.78;;
20754;SDS011;26385;48.470;7.938;2022-10-31T12:16:45;11.02;;;5.30;;
20754;SDS011;26385;48.470;7.938;2022-10-31T12:22:24;10.00;;;4.80;;
20754;SDS011;26385;48.470;7.938;2022-10-31T12:25:11;11.50;;;5.60;;
20754;SDS011;26385;48.470;7.938;2022-10-31T12:27:49;10.10;;;5.60;;
20754;SDS011;26385;48.470;7.938;2022-10-31T12:39:25;13.25;;;6.07;;
20754;SDS011;26385;48.470;7.938;2022-10-31T12:41:57;14.32;;;5.93;;
20754;SDS011;26385;48.470;7.938;2022-10-31T12:58:40;14.48;;;6.65;;
20754;SDS011;26385;48.470;7.938;2022-10-31T13:01:18;11.05;;;6.85;;
20754;SDS011;26385;48.470;7.938;2022-10-31T13:06:14;15.93;;;6.83;;
20754;SDS011;26385;48.470;7.938;2022-10-31T13:09:06;14.88;;;6.57;;
20754;SDS011;26385;48.470;7.938;2022-10-31T13:14:29;11.63;;;6.10;;
20754;SDS011;26385;48.470;7.938;2022-10-31T13:16:59;13.38;;;6.05;;
20754;SDS011;26385;48.470;7.938;2022-10-31T13:19:37;13.32;;;6.05;;
20754;SDS011;26385;48.470;7.938;2022-10-31T13:22:10;11.93;;;6.18;;
20754;SDS011;26385;48.470;7.938;2022-10-31T13:27:17;11.77;;;5.82;;
20754;SDS011;26385;48.470;7.938;2022-10-31T13:32:18;11.57;;;5.75;;
20754;SDS011;26385;48.470;7.938;2022-10-31T13:34:45;12.15;;;6.05;;
20754;SDS011;26385;48.470;7.938;2022-10-31T13:40:05;9.13;;;6.18;;
20754;SDS011;26385;48.470;7.938;2022-10-31T13:42:46;14.27;;;6.70;;
20754;SDS011;26385;48.470;7.938;2022-10-31T13:45:19;12.25;;;5.78;;
20754;SDS011;26385;48.470;7.938;2022-10-31T13:47:59;14.68;;;6.22;;
20754;SDS011;26385;48.470;7.938;2022-10-31T13:50:40;10.93;;;6.20;;
20754;SDS011;26385;48.470;7.938;2022-10-31T13:53:10;13.32;;;6.50;;
20754;SDS011;26385;48.470;7.938;2022-10-31T13:55:43;18.50;;;7.70;;
20754;SDS011;26385;48.470;7.938;2022-10-31T13:58:19;13.60;;;7.05;;
20754;SDS011;26385;48.470;7.938;2022-10-31T14:00:58;16.00;;;7.28;;
20754;SDS011;26385;48.470;7.938;2022-10-31T14:03:28;14.82;;;7.35;;
20754;SDS011;26385;48.470;7.938;2022-10-31T14:05:54;11.20;;;7.05;;
20754;SDS011;26385;48.470;7.938;2022-10-31T14:08:21;15.30;;;7.40;;
20754;SDS011;26385;48.470;7.938;2022-10-31T14:10:52;12.88;;;7.32;;
20754;SDS011;26385;48.470;7.938;2022-10-31T14:13:31;12.98;;;8.13;;
20754;SDS011;26385;48.470;7.938;2022-10-31T14:16:27;16.50;;;8.90;;
20754;SDS011;26385;48.470;7.938;2022-10-31T14:19:26;22.00;;;11.82;;
20754;SDS011;26385;48.470;7.938;2022-10-31T14:21:46;20.40;;;12.10;;
20754;SDS011;26385;48.470;7.938;2022-10-31T14:29:24;16.60;;;10.15;;
20754;SDS011;26385;48.470;7.938;2022-10-31T14:31:54;21.88;;;9.80;;
20754;SDS011;26385;48.470;7.938;2022-10-31T14:34:28;17.00;;;9.65;;
20754;SDS011;26385;48.470;7.938;2022-10-31T14:39:53;13.80;;;8.75;;
20754;SDS011;26385;48.470;7.938;2022-10-31T14:42:40;20.50;;;9.00;;
20754;SDS011;26385;48.470;7.938;2022-10-31T14:53:46;14.50;;;9.32;;
20754;SDS011;26385;48.470;7.938;2022-10-31T14:56:17;18.05;;;9.45;;
20754;SDS011;26385;48.470;7.938;2022-10-31T14:58:46;13.75;;;9.15;;
20754;SDS011;26385;48.470;7.938;2022-10-31T15:01:26;14.90;;;9.52;;
20754;SDS011;26385;48.470;7.938;2022-10-31T15:03:55;14.48;;;9.07;;
20754;SDS011;26385;48.470;7.938;2022-10-31T15:06:25;17.13;;;9.10;;
20754;SDS011;26385;48.470;7.938;2022-10-31T15:08:52;15.65;;;8.68;;
20754;SDS011;26385;48.470;7.938;2022-10-31T15:11:26;13.40;;;7.47;;
20754;SDS011;26385;48.470;7.938;2022-10-31T15:16:40;15.75;;;7.90;;
20754;SDS011;26385;48.470;7.938;2022-10-31T15:19:07;17.15;;;8.27;;
20754;SDS011;26385;48.470;7.938;2022-10-31T15:21:39;15.05;;;8.18;;
20754;SDS011;26385;48.470;7.938;2022-10-31T15:24:10;14.18;;;7.80;;
20754;SDS011;26385;48.470;7.938;2022-10-31T15:26:39;14.27;;;8.00;;
20754;SDS011;26385;48.470;7.938;2022-10-31T15:29:12;14.50;;;8.20;;
20754;SDS011;26385;48.470;7.938;2022-10-31T15:31:39;13.98;;;8.48;;
20754;SDS011;26385;48.470;7.938;2022-10-31T15:34:16;16.50;;;8.30;;
20754;SDS011;26385;48.470;7.938;2022-10-31T15:36:50;15.63;;;8.13;;
20754;SDS011;26385;48.470;7.938;2022-10-31T15:39:15;16.08;;;8.05;;
20754;SDS011;26385;48.470;7.938;2022-10-31T15:41:47;15.27;;;7.43;;
20754;SDS011;26385;48.470;7.938;2022-10-31T15:44:15;14.13;;;7.88;;
20754;SDS011;26385;48.470;7.938;2022-10-31T15:47:05;14.95;;;8.15;;
20754;SDS011;26385;48.470;7.938;2022-10-31T15:49:39;13.15;;;7.50;;
20754;SDS011;26385;48.470;7.938;2022-10-31T15:54:45;13.95;;;8.07;;
20754;SDS011;26385;48.470;7.938;2022-10-31T15:57:15;14.27;;;8.48;;
20754;SDS011;26385;48.470;7.938;2022-10-31T15:59:50;19.85;;;9.80;;
20754;SDS011;26385;48.470;7.938;2022-10-31T16:02:18;16.92;;;9.43;;
20754;SDS011;26385;48.470;7.938;2022-10-31T16:05:19;15.10;;;9.15;;
20754;SDS011;26385;48.470;7.938;2022-10-31T16:07:47;19.95;;;9.63;;
20754;SDS011;26385;48.470;7.938;2022-10-31T16:10:21;15.27;;;8.57;;
20754;SDS011;26385;48.470;7.938;2022-10-31T16:12:48;16.83;;;9.50;;
20754;SDS011;26385;48.470;7.938;2022-10-31T16:15:15;16.00;;;9.93;;
20754;SDS011;26385;48.470;7.938;2022-10-31T16:17:42;23.80;;;10.55;;
20754;SDS011;26385;48.470;7.938;2022-10-31T16:20:21;18.33;;;10.52;;
20754;SDS011;26385;48.470;7.938;2022-10-31T16:22:50;19.35;;;9.95;;
20754;SDS011;26385;48.470;7.938;2022-10-31T16:25:28;15.52;;;8.90;;
20754;SDS011;26385;48.470;7.938;2022-10-31T16:28:02;14.57;;;9.55;;
20754;SDS011;26385;48.470;7.938;2022-10-31T16:35:54;22.38;;;9.40;;
20754;SDS011;26385;48.470;7.938;2022-10-31T16:38:21;17.65;;;9.30;;
20754;SDS011;26385;48.470;7.938;2022-10-31T16:40:47;15.07;;;8.95;;
20754;SDS011;26385;48.470;7.938;2022-10-31T16:43:14;17.42;;;9.20;;
20754;SDS011;26385;48.470;7.938;2022-10-31T16:45:46;15.85;;;9.18;;
20754;SDS011;26385;48.470;7.938;2022-10-31T16:48:16;15.60;;;10.13;;
20754;SDS011;26385;48.470;7.938;2022-10-31T16:50:44;19.20;;;10.43;;
20754;SDS011;26385;48.470;7.938;2022-10-31T16:53:11;16.35;;;9.65;;
20754;SDS011;26385;48.470;7.938;2022-10-31T16:55:48;14.27;;;10.02;;
20754;SDS011;26385;48.470;7.938;2022-10-31T16:58:21;17.40;;;9.75;;
20754;SDS011;26385;48.470;7.938;2022-10-31T17:00:49;15.68;;;9.93;;
20754;SDS011;26385;48.470;7.938;2022-10-31T17:03:14;15.40;;;9.75;;
20754;SDS011;26385;48.470;7.938;2022-10-31T17:05:40;15.60;;;9.65;;
20754;SDS011;26385;48.470;7.938;2022-10-31T17:08:05;17.65;;;9.38;;
20754;SDS011;26385;48.470;7.938;2022-10-31T17:10:31;15.10;;;10.32;;
20754;SDS011;26385;48.470;7.938;2022-10-31T17:12:56;19.90;;;10.15;;
20754;SDS011;26385;48.470;7.938;2022-10-31T17:15:24;15.60;;;9.93;;
20754;SDS011;26385;48.470;7.938;2022-10-31T17:17:52;19.00;;;10.30;;
20754;SDS011;26385;48.470;7.938;2022-10-31T17:20:20;15.95;;;9.35;;